Terminal Aerodrome Forecast
Issued by NWS

Home | Current Version | Previous Version | Text Only | Print | Product List | Glossary On
Versions: 1 2 3 4 5 6 7 8 9 10 11 12 13 14 15 16 17 18 19 20 21
719
FTUS43 KGRB 291126
TAFAUW
TAF
KAUW 291126Z 2912/3012 03006KT P6SM BKN250
     FM291600 06009G14KT P6SM BKN250
     FM300200 07009KT P6SM OVC070
     FM300700 07009G15KT P6SM OVC050
     FM301000 06010G16KT P6SM -RA OVC030=

USA.gov is the U.S. government's official web portal to all federal, state and local government web resources and services.